createdAt,value
2023-05-01T00:00:05.305Z,1006.30
2023-05-01T00:01:04.460Z,1006.27
2023-05-01T00:02:04.472Z,1006.30
2023-05-01T00:03:04.654Z,1006.25
2023-05-01T00:04:04.368Z,1006.19
2023-05-01T00:05:04.625Z,1006.18
2023-05-01T00:06:04.527Z,1006.24
2023-05-01T00:07:04.419Z,1006.17
2023-05-01T00:08:04.502Z,1006.21
2023-05-01T00:09:04.507Z,1006.19
2023-05-01T00:10:04.193Z,1006.15
2023-05-01T00:11:04.436Z,1006.16
2023-05-01T00:12:04.525Z,1006.11
2023-05-01T00:13:04.044Z,1006.09
2023-05-01T00:14:04.043Z,1006.07
2023-05-01T00:15:04.050Z,1006.04
2023-05-01T00:16:04.101Z,1006.03
2023-05-01T00:17:04.066Z,1006.02
2023-05-01T00:18:04.185Z,1006.00
2023-05-01T00:19:03.992Z,1006.01
2023-05-01T00:20:04.083Z,1005.98
2023-05-01T00:21:04.172Z,1005.95
2023-05-01T00:22:03.991Z,1005.97
2023-05-01T00:23:04.414Z,1005.97
2023-05-01T00:24:04.267Z,1005.98
2023-05-01T00:25:04.014Z,1005.94
2023-05-01T00:26:03.912Z,1005.91
2023-05-01T00:27:03.934Z,1005.94
2023-05-01T00:28:04.149Z,1005.88
2023-05-01T00:29:04.193Z,1005.88
2023-05-01T00:30:03.945Z,1005.89
2023-05-01T00:31:03.959Z,1005.87
2023-05-01T00:32:04.192Z,1005.82
2023-05-01T00:33:04.521Z,1005.85
2023-05-01T00:34:04.085Z,1005.82
2023-05-01T00:35:04.276Z,1005.81
2023-05-01T00:36:04.606Z,1005.81
2023-05-01T00:37:04.668Z,1005.82
2023-05-01T00:38:04.514Z,1005.80
2023-05-01T00:39:03.917Z,1005.79
2023-05-01T00:40:03.920Z,1005.76
2023-05-01T00:41:04.740Z,1005.85
2023-05-01T00:42:04.029Z,1005.75
2023-05-01T00:43:04.549Z,1005.79
2023-05-01T00:44:04.353Z,1005.72
2023-05-01T00:45:03.841Z,1005.69
2023-05-01T00:46:04.119Z,1005.62
2023-05-01T00:47:04.163Z,1005.64
2023-05-01T00:48:03.823Z,1005.62
2023-05-01T00:49:04.523Z,1005.67
2023-05-01T00:50:04.584Z,1005.65
2023-05-01T00:51:04.092Z,1005.63
2023-05-01T00:52:03.803Z,1005.55
2023-05-01T00:53:03.746Z,1005.60
2023-05-01T00:54:03.766Z,1005.62
2023-05-01T00:55:03.834Z,1005.56
2023-05-01T00:56:03.716Z,1005.61
2023-05-01T00:57:03.820Z,1005.59
2023-05-01T00:58:03.844Z,1005.60
2023-05-01T00:59:03.834Z,1005.56
2023-05-01T01:00:03.854Z,1005.56
2023-05-01T01:01:03.874Z,1005.57
2023-05-01T01:02:03.877Z,1005.54
2023-05-01T01:03:03.911Z,1005.56
2023-05-01T01:04:03.890Z,1005.57
2023-05-01T01:05:03.893Z,1005.54
2023-05-01T01:06:03.930Z,1005.52
2023-05-01T01:07:03.911Z,1005.51
2023-05-01T01:08:03.894Z,1005.50
2023-05-01T01:09:03.892Z,1005.50
2023-05-01T01:10:05.111Z,1005.47
2023-05-01T01:11:03.634Z,1005.47
2023-05-01T01:12:03.650Z,1005.49
2023-05-01T01:13:03.638Z,1005.42
2023-05-01T01:14:03.654Z,1005.42
2023-05-01T01:15:03.670Z,1005.36
2023-05-01T01:16:03.750Z,1005.46
2023-05-01T01:17:03.832Z,1005.42
2023-05-01T01:18:03.756Z,1005.44
2023-05-01T01:19:03.864Z,1005.41
2023-05-01T01:20:03.589Z,1005.43
2023-05-01T01:21:03.572Z,1005.39
2023-05-01T01:22:03.536Z,1005.40
2023-05-01T01:23:03.585Z,1005.34
2023-05-01T01:24:03.626Z,1005.40
2023-05-01T01:25:03.549Z,1005.35
2023-05-01T01:26:03.740Z,1005.36
2023-05-01T01:27:03.518Z,1005.30
2023-05-01T01:28:03.847Z,1005.35
2023-05-01T01:29:03.573Z,1005.31
2023-05-01T01:30:03.956Z,1005.32
2023-05-01T01:31:04.027Z,1005.28
2023-05-01T01:32:03.859Z,1005.27
2023-05-01T01:33:04.322Z,1005.21
2023-05-01T01:34:03.501Z,1005.27
2023-05-01T01:35:04.231Z,1005.28
2023-05-01T01:36:03.484Z,1005.26
2023-05-01T01:37:03.766Z,1005.26
2023-05-01T01:38:04.318Z,1005.25
2023-05-01T01:39:04.308Z,1005.27
2023-05-01T01:40:03.506Z,1005.23
2023-05-01T01:41:03.442Z,1005.21
2023-05-01T01:42:04.011Z,1005.20
2023-05-01T01:43:04.356Z,1005.25
2023-05-01T01:44:03.619Z,1005.21
2023-05-01T01:45:04.904Z,1005.10
2023-05-01T01:46:03.827Z,1005.10
2023-05-01T01:47:04.843Z,1005.11
2023-05-01T01:48:04.188Z,1005.06
2023-05-01T01:49:03.419Z,1005.07
2023-05-01T01:50:03.653Z,1005.11
2023-05-01T01:51:03.456Z,1005.10
2023-05-01T01:52:04.331Z,1005.08
2023-05-01T01:53:03.370Z,1005.08
2023-05-01T01:54:03.342Z,1005.05
2023-05-01T01:55:03.374Z,1005.05
2023-05-01T01:56:03.931Z,1005.06
2023-05-01T01:57:03.321Z,1005.02
2023-05-01T01:58:03.312Z,1005.01
2023-05-01T01:59:03.429Z,1005.01
2023-05-01T02:00:03.304Z,1004.96
2023-05-01T02:01:03.323Z,1005.01
2023-05-01T02:02:03.447Z,1004.95
2023-05-01T02:03:03.311Z,1004.94
2023-05-01T02:04:03.442Z,1004.95
2023-05-01T02:05:03.351Z,1004.94
2023-05-01T02:06:03.508Z,1004.97
2023-05-01T02:07:03.487Z,1004.91
2023-05-01T02:08:03.364Z,1004.89
2023-05-01T02:09:03.310Z,1004.87
2023-05-01T02:10:03.251Z,1004.90
2023-05-01T02:11:03.316Z,1004.85
2023-05-01T02:12:03.320Z,1004.90
2023-05-01T02:13:03.326Z,1004.87
2023-05-01T02:14:03.333Z,1004.81
2023-05-01T02:15:03.220Z,1004.81
2023-05-01T02:16:03.503Z,1004.85
2023-05-01T02:17:03.592Z,1004.86
2023-05-01T02:18:03.261Z,1004.82
2023-05-01T02:19:03.235Z,1004.83
2023-05-01T02:20:03.188Z,1004.83
2023-05-01T02:21:03.229Z,1004.77
2023-05-01T02:22:03.292Z,1004.78
2023-05-01T02:23:03.349Z,1004.68
2023-05-01T02:24:03.198Z,1004.66
2023-05-01T02:25:03.199Z,1004.76
2023-05-01T02:26:03.540Z,1004.72
2023-05-01T02:27:03.632Z,1004.71
2023-05-01T02:28:03.684Z,1004.70
2023-05-01T02:29:03.177Z,1004.73
2023-05-01T02:30:03.725Z,1004.68
2023-05-01T02:31:03.106Z,1004.68
2023-05-01T02:32:03.297Z,1004.66
2023-05-01T02:33:03.288Z,1004.60
2023-05-01T02:34:03.333Z,1004.64
2023-05-01T02:35:03.757Z,1004.59
2023-05-01T02:36:03.890Z,1004.58
2023-05-01T02:37:03.073Z,1004.60
2023-05-01T02:38:03.115Z,1004.61
2023-05-01T02:39:03.498Z,1004.55
2023-05-01T02:40:04.071Z,1004.56
2023-05-01T02:41:03.941Z,1004.55
2023-05-01T02:42:03.759Z,1004.56
2023-05-01T02:43:03.118Z,1004.58
2023-05-01T02:44:03.399Z,1004.54
2023-05-01T02:45:03.847Z,1004.60
2023-05-01T02:46:04.013Z,1004.54
2023-05-01T02:47:03.784Z,1004.54
2023-05-01T02:48:03.006Z,1004.58
2023-05-01T02:49:03.041Z,1004.50
2023-05-01T02:50:02.975Z,1004.53
2023-05-01T02:51:02.994Z,1004.50
2023-05-01T02:52:03.062Z,1004.47
2023-05-01T02:53:03.134Z,1004.46
2023-05-01T02:54:03.220Z,1004.42
2023-05-01T02:55:03.025Z,1004.40
2023-05-01T02:56:03.372Z,1004.40
2023-05-01T02:57:02.952Z,1004.47
2023-05-01T02:58:03.559Z,1004.43
2023-05-01T02:59:02.958Z,1004.43
2023-05-01T03:00:02.924Z,1004.40
2023-05-01T03:01:02.944Z,1004.40
2023-05-01T03:02:02.895Z,1004.39
2023-05-01T03:03:02.970Z,1004.35
2023-05-01T03:04:03.127Z,1004.35
2023-05-01T03:05:03.066Z,1004.36
2023-05-01T03:06:03.097Z,1004.35
2023-05-01T03:07:02.872Z,1004.33
2023-05-01T03:08:03.685Z,1004.32
2023-05-01T03:09:02.895Z,1004.35
2023-05-01T03:10:03.112Z,1004.35
2023-05-01T03:11:02.912Z,1004.28
2023-05-01T03:12:02.916Z,1004.33
2023-05-01T03:13:02.935Z,1004.35
2023-05-01T03:14:02.992Z,1004.24
2023-05-01T03:15:02.814Z,1004.32
2023-05-01T03:16:02.822Z,1004.25
2023-05-01T03:17:02.799Z,1004.24
2023-05-01T03:18:02.803Z,1004.31
2023-05-01T03:19:02.824Z,1004.27
2023-05-01T03:20:02.887Z,1004.29
2023-05-01T03:21:02.949Z,1004.21
2023-05-01T03:22:02.777Z,1004.23
2023-05-01T03:23:03.048Z,1004.19
2023-05-01T03:24:03.105Z,1004.18
2023-05-01T03:25:03.197Z,1004.17
2023-05-01T03:26:03.216Z,1004.25
2023-05-01T03:27:02.820Z,1004.19
2023-05-01T03:28:02.737Z,1004.17
2023-05-01T03:29:02.716Z,1004.15
2023-05-01T03:30:02.711Z,1004.17
2023-05-01T03:31:02.698Z,1004.11
2023-05-01T03:32:03.518Z,1004.14
2023-05-01T03:33:02.711Z,1004.12
2023-05-01T03:34:02.710Z,1004.07
2023-05-01T03:35:02.733Z,1004.10
2023-05-01T03:36:02.670Z,1004.09
2023-05-01T03:37:02.671Z,1004.09
2023-05-01T03:38:03.355Z,1004.07
2023-05-01T03:39:03.856Z,1004.03
2023-05-01T03:40:02.699Z,1004.02
2023-05-01T03:41:02.692Z,1003.95
2023-05-01T03:42:02.770Z,1003.98
2023-05-01T03:43:02.762Z,1004.00
2023-05-01T03:44:02.764Z,1004.02
2023-05-01T03:45:02.573Z,1004.04
2023-05-01T03:46:02.625Z,1003.98
2023-05-01T03:47:02.657Z,1004.02
2023-05-01T03:48:02.773Z,1003.95
2023-05-01T03:49:02.806Z,1003.95
2023-05-01T03:50:02.567Z,1003.94
2023-05-01T03:51:02.561Z,1003.95
2023-05-01T03:52:02.981Z,1003.91
2023-05-01T03:53:02.572Z,1003.87
2023-05-01T03:54:02.796Z,1003.93
2023-05-01T03:55:02.582Z,1003.93
2023-05-01T03:56:02.598Z,1003.93
2023-05-01T03:57:02.603Z,1003.88
2023-05-01T03:58:02.540Z,1003.94
2023-05-01T03:59:02.557Z,1003.92
2023-05-01T04:00:02.576Z,1003.81
2023-05-01T04:01:02.661Z,1003.81
2023-05-01T04:02:02.736Z,1003.83
2023-05-01T04:03:02.827Z,1003.84
2023-05-01T04:04:02.816Z,1003.82
2023-05-01T04:05:02.486Z,1003.78
2023-05-01T04:06:02.491Z,1003.77
2023-05-01T04:07:02.478Z,1003.77
2023-05-01T04:08:02.489Z,1003.76
2023-05-01T04:09:02.497Z,1003.76
2023-05-01T04:10:02.451Z,1003.73
2023-05-01T04:11:02.468Z,1003.75
2023-05-01T04:12:02.432Z,1003.70
2023-05-01T04:13:02.427Z,1003.81
2023-05-01T04:14:02.448Z,1003.73
2023-05-01T04:15:02.451Z,1003.74
2023-05-01T04:16:02.619Z,1003.73
2023-05-01T04:17:02.392Z,1003.74
2023-05-01T04:18:02.630Z,1003.75
2023-05-01T04:19:02.388Z,1003.76
2023-05-01T04:20:02.683Z,1003.76
2023-05-01T04:21:02.357Z,1003.76
2023-05-01T04:22:02.794Z,1003.73
2023-05-01T04:23:02.784Z,1003.76
2023-05-01T04:24:02.422Z,1003.75
2023-05-01T04:25:02.322Z,1003.72
2023-05-01T04:26:02.448Z,1003.72
2023-05-01T04:27:02.469Z,1003.69
2023-05-01T04:28:02.821Z,1003.74
2023-05-01T04:29:02.862Z,1003.70
2023-05-01T04:30:02.880Z,1003.71
2023-05-01T04:31:02.890Z,1003.78
2023-05-01T04:32:02.517Z,1003.70
2023-05-01T04:33:02.705Z,1003.70
2023-05-01T04:34:02.660Z,1003.72
2023-05-01T04:35:04.123Z,1003.73
2023-05-01T04:36:03.081Z,1003.67
2023-05-01T04:37:02.257Z,1003.66
2023-05-01T04:38:02.269Z,1003.66
2023-05-01T04:39:03.122Z,1003.64
2023-05-01T04:40:02.769Z,1003.64
2023-05-01T04:41:02.524Z,1003.63
2023-05-01T04:42:02.291Z,1003.65
2023-05-01T04:43:02.299Z,1003.64
2023-05-01T04:44:02.245Z,1003.62
2023-05-01T04:45:02.184Z,1003.59
2023-05-01T04:46:02.177Z,1003.58
2023-05-01T04:47:02.201Z,1003.61
2023-05-01T04:48:02.233Z,1003.55
2023-05-01T04:49:02.595Z,1003.59
2023-05-01T04:50:02.176Z,1003.59
2023-05-01T04:51:03.618Z,1003.56
2023-05-01T04:52:02.138Z,1003.53
2023-05-01T04:53:02.137Z,1003.53
2023-05-01T04:54:02.152Z,1003.59
2023-05-01T04:55:02.129Z,1003.55
2023-05-01T04:56:02.170Z,1003.57
2023-05-01T04:57:03.576Z,1003.62
2023-05-01T04:58:02.345Z,1003.51
2023-05-01T04:59:02.108Z,1003.52
2023-05-01T05:00:03.540Z,1003.55
2023-05-01T05:01:02.639Z,1003.55
2023-05-01T05:02:02.735Z,1003.53
2023-05-01T05:03:02.359Z,1003.55
2023-05-01T05:04:02.390Z,1003.55
2023-05-01T05:05:02.154Z,1003.50
2023-05-01T05:06:02.083Z,1003.50
2023-05-01T05:07:02.080Z,1003.54
2023-05-01T05:08:02.090Z,1003.53
2023-05-01T05:09:02.107Z,1003.54
2023-05-01T05:10:02.102Z,1003.53
2023-05-01T05:11:02.088Z,1003.47
2023-05-01T05:12:02.007Z,1003.51
2023-05-01T05:13:02.031Z,1003.55
2023-05-01T05:14:02.093Z,1003.53
2023-05-01T05:15:01.988Z,1003.52
2023-05-01T05:16:02.211Z,1003.49
2023-05-01T05:17:02.114Z,1003.48
2023-05-01T05:18:02.012Z,1003.52
2023-05-01T05:19:01.985Z,1003.46
2023-05-01T05:20:02.389Z,1003.46
2023-05-01T05:21:01.956Z,1003.46
2023-05-01T05:22:01.938Z,1003.44
2023-05-01T05:23:01.932Z,1003.50
2023-05-01T05:24:01.971Z,1003.50
2023-05-01T05:25:01.985Z,1003.49
2023-05-01T05:26:01.909Z,1003.49
2023-05-01T05:27:02.677Z,1003.48
2023-05-01T05:28:01.927Z,1003.52
2023-05-01T05:29:01.911Z,1003.50
2023-05-01T05:30:02.028Z,1003.51
2023-05-01T05:31:01.881Z,1003.46
2023-05-01T05:32:02.026Z,1003.49
2023-05-01T05:33:02.358Z,1003.50
2023-05-01T05:34:02.217Z,1003.49
2023-05-01T05:35:02.032Z,1003.44
2023-05-01T05:36:02.131Z,1003.53
2023-05-01T05:37:02.267Z,1003.46
2023-05-01T05:38:02.049Z,1003.45
2023-05-01T05:39:02.382Z,1003.38
2023-05-01T05:40:01.809Z,1003.43
2023-05-01T05:41:01.848Z,1003.42
2023-05-01T05:42:01.826Z,1003.46
2023-05-01T05:43:01.923Z,1003.47
2023-05-01T05:44:01.887Z,1003.41
2023-05-01T05:45:02.234Z,1003.40
2023-05-01T05:46:02.259Z,1003.34
2023-05-01T05:47:01.804Z,1003.46
2023-05-01T05:48:02.205Z,1003.44
2023-05-01T05:49:01.762Z,1003.38
2023-05-01T05:50:01.762Z,1003.36
2023-05-01T05:51:02.048Z,1003.42
2023-05-01T05:52:01.757Z,1003.39
2023-05-01T05:53:01.756Z,1003.35
2023-05-01T05:54:01.962Z,1003.36
2023-05-01T05:55:02.294Z,1003.33
2023-05-01T05:56:01.735Z,1003.35
2023-05-01T05:57:01.860Z,1003.36
2023-05-01T05:58:01.805Z,1003.32
2023-05-01T05:59:02.093Z,1003.29
2023-05-01T06:00:01.814Z,1003.33
2023-05-01T06:01:02.141Z,1003.32
2023-05-01T06:02:02.295Z,1003.27
2023-05-01T06:03:01.813Z,1003.31
2023-05-01T06:04:02.059Z,1003.27
2023-05-01T06:05:02.093Z,1003.31
2023-05-01T06:06:01.792Z,1003.27
2023-05-01T06:07:02.009Z,1003.26
2023-05-01T06:08:01.678Z,1003.21
2023-05-01T06:09:01.677Z,1003.23
2023-05-01T06:10:01.697Z,1003.22
2023-05-01T06:11:01.733Z,1003.22
2023-05-01T06:12:01.614Z,1003.25
2023-05-01T06:13:02.753Z,1003.20
2023-05-01T06:14:01.599Z,1003.22
2023-05-01T06:15:01.628Z,1003.21
2023-05-01T06:16:01.648Z,1003.22
2023-05-01T06:17:01.649Z,1003.20
2023-05-01T06:18:01.756Z,1003.21
2023-05-01T06:19:01.649Z,1003.24
2023-05-01T06:20:01.689Z,1003.22
2023-05-01T06:21:01.684Z,1003.22
2023-05-01T06:22:01.558Z,1003.26
2023-05-01T06:23:01.730Z,1003.25
2023-05-01T06:24:01.746Z,1003.28
2023-05-01T06:25:01.586Z,1003.31
2023-05-01T06:26:01.765Z,1003.25
2023-05-01T06:27:01.739Z,1003.26
2023-05-01T06:28:01.616Z,1003.30
2023-05-01T06:29:01.733Z,1003.22
2023-05-01T06:30:01.829Z,1003.20
2023-05-01T06:31:01.880Z,1003.19
2023-05-01T06:32:01.674Z,1003.24
2023-05-01T06:33:01.883Z,1003.11
2023-05-01T06:34:01.597Z,1003.15
2023-05-01T06:35:01.465Z,1003.18
2023-05-01T06:36:01.492Z,1003.09
2023-05-01T06:37:01.423Z,1003.13
2023-05-01T06:38:01.522Z,1003.16
2023-05-01T06:39:01.573Z,1003.15
2023-05-01T06:40:01.595Z,1003.16
2023-05-01T06:41:01.406Z,1003.15
2023-05-01T06:42:01.427Z,1003.16
2023-05-01T06:43:01.813Z,1003.19
2023-05-01T06:44:01.880Z,1003.19
2023-05-01T06:45:01.667Z,1003.07
2023-05-01T06:46:01.541Z,1003.14
2023-05-01T06:47:02.093Z,1003.17
2023-05-01T06:48:01.567Z,1003.12
2023-05-01T06:49:01.857Z,1003.13
2023-05-01T06:50:04.997Z,1003.18
2023-05-01T06:51:01.325Z,1003.15
2023-05-01T06:52:01.804Z,1003.16
2023-05-01T06:53:02.112Z,1003.18
2023-05-01T06:54:01.366Z,1003.11
2023-05-01T06:55:01.416Z,1003.14
2023-05-01T06:56:02.058Z,1003.08
2023-05-01T06:57:01.322Z,1003.07
2023-05-01T06:58:04.807Z,1003.09
2023-05-01T06:59:01.962Z,1003.06
2023-05-01T07:00:01.406Z,1003.09
2023-05-01T07:01:01.578Z,1003.08
2023-05-01T07:02:01.840Z,1003.04
2023-05-01T07:03:02.166Z,1003.03
2023-05-01T07:04:01.263Z,1003.00
2023-05-01T07:05:01.236Z,1003.03
2023-05-01T07:06:01.337Z,1003.02
2023-05-01T07:07:01.217Z,1003.03
2023-05-01T07:08:01.982Z,1003.06
2023-05-01T07:09:01.432Z,1003.01
2023-05-01T07:10:01.207Z,1003.05
2023-05-01T07:11:01.203Z,1003.04
2023-05-01T07:12:01.271Z,1002.96
2023-05-01T07:13:01.253Z,1003.01
2023-05-01T07:14:01.461Z,1002.99
2023-05-01T07:15:01.367Z,1003.01
2023-05-01T07:16:01.192Z,1002.99
2023-05-01T07:17:01.480Z,1003.00
2023-05-01T07:18:01.430Z,1003.01
2023-05-01T07:19:01.165Z,1002.98
2023-05-01T07:20:01.131Z,1002.94
2023-05-01T07:21:01.661Z,1002.98
2023-05-01T07:22:01.161Z,1002.96
2023-05-01T07:23:01.146Z,1002.99
2023-05-01T07:24:01.180Z,1003.03
2023-05-01T07:25:01.302Z,1002.98
2023-05-01T07:26:02.579Z,1002.93
2023-05-01T07:27:01.125Z,1002.98
2023-05-01T07:28:01.220Z,1002.91
2023-05-01T07:29:01.165Z,1002.95
2023-05-01T07:30:01.494Z,1002.99
2023-05-01T07:31:01.829Z,1002.94
2023-05-01T07:32:01.120Z,1002.95
2023-05-01T07:33:01.435Z,1002.93
2023-05-01T07:34:01.729Z,1002.95
2023-05-01T07:35:01.039Z,1002.91
2023-05-01T07:36:01.043Z,1002.91
2023-05-01T07:37:01.099Z,1002.86
2023-05-01T07:38:01.132Z,1002.86
2023-05-01T07:39:01.069Z,1002.82
2023-05-01T07:40:01.267Z,1002.83
2023-05-01T07:41:01.313Z,1002.84
2023-05-01T07:42:01.163Z,1002.76
2023-05-01T07:43:01.464Z,1002.80
2023-05-01T07:44:01.381Z,1002.79
2023-05-01T07:45:00.998Z,1002.76
2023-05-01T07:46:01.466Z,1002.76
2023-05-01T07:47:00.955Z,1002.79
2023-05-01T07:48:00.990Z,1002.78
2023-05-01T07:49:00.960Z,1002.78
2023-05-01T07:50:00.969Z,1002.75
2023-05-01T07:51:00.929Z,1002.77
2023-05-01T07:52:01.020Z,1002.77
2023-05-01T07:53:00.962Z,1002.76
2023-05-01T07:54:00.917Z,1002.79
2023-05-01T07:55:01.039Z,1002.75
2023-05-01T07:56:00.905Z,1002.81
2023-05-01T07:57:01.062Z,1002.78
2023-05-01T07:58:02.391Z,1002.76
2023-05-01T07:59:02.340Z,1002.76
2023-05-01T08:00:00.872Z,1002.80
2023-05-01T08:01:01.019Z,1002.77
2023-05-01T08:02:01.154Z,1002.83
2023-05-01T08:03:00.922Z,1002.78
2023-05-01T08:04:00.907Z,1002.75
2023-05-01T08:05:01.172Z,1002.75
2023-05-01T08:06:00.939Z,1002.72
2023-05-01T08:07:00.852Z,1002.78
2023-05-01T08:08:00.866Z,1002.78
2023-05-01T08:09:00.873Z,1002.79
2023-05-01T08:10:01.071Z,1002.74
2023-05-01T08:11:00.796Z,1002.77
2023-05-01T08:12:00.775Z,1002.74
2023-05-01T08:13:00.795Z,1002.73
2023-05-01T08:14:00.796Z,1002.72
2023-05-01T08:15:00.831Z,1002.71
2023-05-01T08:16:00.882Z,1002.72
2023-05-01T08:17:00.855Z,1002.75
2023-05-01T08:18:00.904Z,1002.68
2023-05-01T08:19:00.735Z,1002.72
2023-05-01T08:20:00.851Z,1002.71
2023-05-01T08:21:00.893Z,1002.71
2023-05-01T08:22:00.729Z,1002.74
2023-05-01T08:23:00.767Z,1002.75
2023-05-01T08:24:00.962Z,1002.70
2023-05-01T08:25:00.950Z,1002.69
2023-05-01T08:26:02.173Z,1002.71
2023-05-01T08:27:00.980Z,1002.66
2023-05-01T08:28:00.718Z,1002.67
2023-05-01T08:29:00.947Z,1002.69
2023-05-01T08:30:00.648Z,1002.66
2023-05-01T08:31:00.835Z,1002.62
2023-05-01T08:32:01.148Z,1002.67
2023-05-01T08:33:00.869Z,1002.60
2023-05-01T08:34:00.633Z,1002.58
2023-05-01T08:35:00.643Z,1002.60
2023-05-01T08:36:00.631Z,1002.56
2023-05-01T08:37:00.684Z,1002.53
2023-05-01T08:38:00.729Z,1002.55
2023-05-01T08:39:00.791Z,1002.58
2023-05-01T08:40:00.853Z,1002.56
2023-05-01T08:41:00.848Z,1002.51
2023-05-01T08:42:00.565Z,1002.56
2023-05-01T08:43:00.758Z,1002.53
2023-05-01T08:44:00.897Z,1002.60
2023-05-01T08:45:00.744Z,1002.55
2023-05-01T08:46:00.848Z,1002.52
2023-05-01T08:47:01.218Z,1002.55
2023-05-01T08:48:00.564Z,1002.54
2023-05-01T08:49:00.525Z,1002.54
2023-05-01T08:50:00.608Z,1002.53
2023-05-01T08:51:00.562Z,1002.52
2023-05-01T08:52:00.512Z,1002.53
2023-05-01T08:53:00.500Z,1002.54
2023-05-01T08:54:01.124Z,1002.50
2023-05-01T08:55:00.568Z,1002.49
2023-05-01T08:56:00.923Z,1002.50
2023-05-01T08:57:01.247Z,1002.49
2023-05-01T08:58:00.524Z,1002.50
2023-05-01T08:59:00.864Z,1002.45
2023-05-01T09:00:01.176Z,1002.49
2023-05-01T09:01:00.449Z,1002.45
2023-05-01T09:02:00.812Z,1002.51
2023-05-01T09:03:00.456Z,1002.46
2023-05-01T09:04:00.535Z,1002.43
2023-05-01T09:05:00.508Z,1002.45
2023-05-01T09:06:00.580Z,1002.40
2023-05-01T09:07:00.459Z,1002.41
2023-05-01T09:08:00.651Z,1002.41
2023-05-01T09:09:00.557Z,1002.42
2023-05-01T09:10:00.756Z,1002.38
2023-05-01T09:11:00.476Z,1002.35
2023-05-01T09:12:00.482Z,1002.33
2023-05-01T09:13:00.380Z,1002.36
2023-05-01T09:14:00.526Z,1002.34
2023-05-01T09:15:00.479Z,1002.30
2023-05-01T09:16:00.523Z,1002.39
2023-05-01T09:17:00.326Z,1002.36
2023-05-01T09:18:03.182Z,1002.35
2023-05-01T09:19:00.315Z,1002.33
2023-05-01T09:20:00.324Z,1002.35
2023-05-01T09:21:00.307Z,1002.36
2023-05-01T09:22:00.295Z,1002.38
2023-05-01T09:23:00.357Z,1002.36
2023-05-01T09:24:00.357Z,1002.37
2023-05-01T09:25:00.457Z,1002.32
2023-05-01T09:26:00.263Z,1002.33
2023-05-01T09:27:00.261Z,1002.28
2023-05-01T09:28:00.805Z,1002.30
2023-05-01T09:29:01.089Z,1002.32
2023-05-01T09:30:00.346Z,1002.33
2023-05-01T09:31:00.234Z,1002.24
2023-05-01T09:32:01.012Z,1002.26
2023-05-01T09:33:00.248Z,1002.26
2023-05-01T09:34:00.235Z,1002.31
2023-05-01T09:35:00.306Z,1002.25
2023-05-01T09:36:00.204Z,1002.23
2023-05-01T09:37:00.377Z,1002.23
2023-05-01T09:38:00.368Z,1002.25
2023-05-01T09:39:00.297Z,1002.26
2023-05-01T09:40:00.254Z,1002.18
2023-05-01T09:41:01.616Z,1002.21
2023-05-01T09:42:00.711Z,1002.21
2023-05-01T09:43:00.153Z,1002.25
2023-05-01T09:44:00.175Z,1002.21
2023-05-01T09:45:00.175Z,1002.23
2023-05-01T09:46:00.375Z,1002.22
2023-05-01T09:47:00.605Z,1002.23
2023-05-01T09:48:00.657Z,1002.22
2023-05-01T09:49:00.175Z,1002.27
2023-05-01T09:50:00.298Z,1002.21
2023-05-01T09:51:00.388Z,1002.17
2023-05-01T09:52:00.108Z,1002.24
2023-05-01T09:53:00.447Z,1002.23
2023-05-01T09:54:00.202Z,1002.20
2023-05-01T09:55:00.168Z,1002.23
2023-05-01T09:56:00.357Z,1002.18
2023-05-01T09:57:00.045Z,1002.18
2023-05-01T09:58:00.964Z,1002.17
2023-05-01T09:59:00.284Z,1002.15
2023-05-01T10:00:00.039Z,1002.22
2023-05-01T10:01:00.115Z,1002.20
2023-05-01T10:02:00.263Z,1002.19
2023-05-01T10:03:00.097Z,1002.18
2023-05-01T10:04:00.183Z,1002.17
2023-05-01T10:05:00.018Z,1002.11
2023-05-01T10:06:00.121Z,1002.13
2023-05-01T10:07:00.181Z,1002.11
2023-05-01T10:07:59.982Z,1002.09
2023-05-01T10:09:00.029Z,1002.03
2023-05-01T10:10:01.710Z,1002.08
2023-05-01T10:10:59.962Z,1002.10
2023-05-01T10:12:00.150Z,1002.15
2023-05-01T10:12:59.956Z,1002.14
2023-05-01T10:13:59.936Z,1002.14
2023-05-01T10:15:05.505Z,1002.12
2023-05-01T10:15:59.904Z,1002.12
2023-05-01T10:17:00.030Z,1002.13
2023-05-01T10:17:59.984Z,1002.12
2023-05-01T10:19:01.092Z,1002.10
2023-05-01T10:20:00.029Z,1002.13
2023-05-01T10:20:59.934Z,1002.14
2023-05-01T10:22:00.382Z,1002.12
2023-05-01T10:23:00.296Z,1002.11
2023-05-01T10:23:59.965Z,1002.10
2023-05-01T10:24:59.963Z,1002.07
2023-05-01T10:26:00.859Z,1002.09
2023-05-01T10:26:59.881Z,1002.11
2023-05-01T10:27:59.914Z,1002.10
2023-05-01T10:28:59.919Z,1002.08
2023-05-01T10:29:59.912Z,1002.00
2023-05-01T10:30:59.813Z,1001.97
2023-05-01T10:31:59.985Z,1001.98
2023-05-01T10:32:59.829Z,1001.98
2023-05-01T10:33:59.993Z,1001.97
2023-05-01T10:35:00.024Z,1001.95
2023-05-01T10:36:00.001Z,1002.01
2023-05-01T10:37:01.249Z,1001.96
2023-05-01T10:38:00.025Z,1001.91
2023-05-01T10:39:00.062Z,1001.93
2023-05-01T10:39:59.892Z,1001.89
2023-05-01T10:41:00.061Z,1001.88
2023-05-01T10:42:00.141Z,1001.92
2023-05-01T10:42:59.804Z,1001.87
2023-05-01T10:43:59.794Z,1001.84
2023-05-01T10:44:59.908Z,1001.82
2023-05-01T10:45:59.791Z,1001.84
2023-05-01T10:46:59.789Z,1001.80
2023-05-01T10:48:00.201Z,1001.79
2023-05-01T10:48:59.706Z,1001.75
2023-05-01T10:49:59.963Z,1001.70
2023-05-01T10:50:59.738Z,1001.76
2023-05-01T10:51:59.754Z,1001.79
2023-05-01T10:52:59.887Z,1001.68
2023-05-01T10:53:59.957Z,1001.78
2023-05-01T10:54:59.658Z,1001.70
2023-05-01T10:55:59.801Z,1001.72
2023-05-01T10:56:59.773Z,1001.78
2023-05-01T10:58:00.056Z,1001.78
2023-05-01T10:58:59.685Z,1001.72
2023-05-01T10:59:59.615Z,1001.76
2023-05-01T11:00:59.670Z,1001.69
2023-05-01T11:01:59.704Z,1001.68
2023-05-01T11:02:59.681Z,1001.72
2023-05-01T11:03:59.828Z,1001.73
2023-05-01T11:04:59.976Z,1001.75
2023-05-01T11:06:00.139Z,1001.77
2023-05-01T11:06:59.997Z,1001.72
2023-05-01T11:08:00.021Z,1001.83
2023-05-01T11:08:59.602Z,1001.85
2023-05-01T11:10:00.174Z,1001.72
2023-05-01T11:10:59.555Z,1001.70
2023-05-01T11:11:59.679Z,1001.71
2023-05-01T11:12:59.542Z,1001.75
2023-05-01T11:13:59.578Z,1001.74
2023-05-01T11:14:59.773Z,1001.76
2023-05-01T11:15:59.724Z,1001.71
2023-05-01T11:16:59.709Z,1001.72
2023-05-01T11:17:59.606Z,1001.64
2023-05-01T11:18:59.497Z,1001.61
2023-05-01T11:19:59.545Z,1001.62
2023-05-01T11:20:59.505Z,1001.65
2023-05-01T11:21:59.745Z,1001.61
2023-05-01T11:22:59.848Z,1001.62
2023-05-01T11:23:59.546Z,1001.60
2023-05-01T11:24:59.898Z,1001.59
2023-05-01T11:26:00.078Z,1001.59
2023-05-01T11:26:59.646Z,1001.60
2023-05-01T11:27:59.685Z,1001.55
2023-05-01T11:28:59.417Z,1001.57
2023-05-01T11:29:59.439Z,1001.58
2023-05-01T11:30:59.414Z,1001.65
2023-05-01T11:31:59.541Z,1001.65
2023-05-01T11:32:59.675Z,1001.63
2023-05-01T11:33:59.387Z,1001.60
2023-05-01T11:34:59.984Z,1001.58
2023-05-01T11:35:59.827Z,1001.61
2023-05-01T11:36:59.413Z,1001.56
2023-05-01T11:37:59.717Z,1001.55
2023-05-01T11:38:59.865Z,1001.63
2023-05-01T11:39:59.327Z,1001.60
2023-05-01T11:40:59.649Z,1001.62
2023-05-01T11:41:59.971Z,1001.57
2023-05-01T11:43:00.064Z,1001.56
2023-05-01T11:43:59.569Z,1001.57
2023-05-01T11:44:59.305Z,1001.54
2023-05-01T11:45:59.394Z,1001.54
2023-05-01T11:46:59.507Z,1001.55
2023-05-01T11:48:02.860Z,1001.49
2023-05-01T11:49:00.161Z,1001.54
2023-05-01T11:49:59.406Z,1001.55
2023-05-01T11:50:59.720Z,1001.56
2023-05-01T11:51:59.586Z,1001.53
2023-05-01T11:52:59.326Z,1001.60
2023-05-01T11:53:59.297Z,1001.63
2023-05-01T11:54:59.511Z,1001.61
2023-05-01T11:55:59.362Z,1001.58
2023-05-01T11:56:59.219Z,1001.58
2023-05-01T11:57:59.223Z,1001.55
2023-05-01T11:58:59.288Z,1001.49
2023-05-01T11:59:59.239Z,1001.49
2023-05-01T12:00:59.214Z,1001.51
2023-05-01T12:01:59.257Z,1001.56
2023-05-01T12:02:59.322Z,1001.47
2023-05-01T12:03:59.322Z,1001.48
2023-05-01T12:04:59.745Z,1001.47